Map

Track Data

SID SEASON NUMBER BASIN SUBBASIN NAME ISO_TIME NATURE LAT LON WMO_WIND WMO_PRES WMO_AGENCY TRACK_TYPE DIST2LAND LANDFALL IFLAG USA_AGENCY USA_ATCF_ID USA_LAT USA_LON USA_RECORD USA_STATUS USA_WIND USA_PRES USA_SSHS USA_R34_NE USA_R34_SE USA_R34_SW USA_R34_NW USA_R50_NE USA_R50_SE USA_R50_SW USA_R50_NW USA_R64_NE USA_R64_SE USA_R64_SW USA_R64_NW USA_POCI USA_ROCI USA_RMW USA_EYE TOKYO_LAT TOKYO_LON TOKYO_GRADE TOKYO_WIND TOKYO_PRES TOKYO_R50_DIR TOKYO_R50_LONG TOKYO_R50_SHORT TOKYO_R30_DIR TOKYO_R30_LONG TOKYO_R30_SHORT TOKYO_LAND CMA_LAT CMA_LON CMA_CAT CMA_WIND CMA_PRES HKO_LAT HKO_LON HKO_CAT HKO_WIND HKO_PRES NEWDELHI_LAT NEWDELHI_LON NEWDELHI_GRADE NEWDELHI_WIND NEWDELHI_PRES NEWDELHI_CI NEWDELHI_DP NEWDELHI_POCI REUNION_LAT REUNION_LON REUNION_TYPE REUNION_WIND REUNION_PRES REUNION_TNUM REUNION_CI REUNION_RMW REUNION_R34_NE REUNION_R34_SE REUNION_R34_SW REUNION_R34_NW REUNION_R50_NE REUNION_R50_SE REUNION_R50_SW REUNION_R50_NW REUNION_R64_NE REUNION_R64_SE REUNION_R64_SW REUNION_R64_NW BOM_LAT BOM_LON BOM_TYPE BOM_WIND BOM_PRES BOM_TNUM BOM_CI BOM_RMW BOM_R34_NE BOM_R34_SE BOM_R34_SW BOM_R34_NW BOM_R50_NE BOM_R50_SE BOM_R50_SW BOM_R50_NW BOM_R64_NE BOM_R64_SE BOM_R64_SW BOM_R64_NW BOM_ROCI BOM_POCI BOM_EYE BOM_POS_METHOD BOM_PRES_METHOD NADI_LAT NADI_LON NADI_CAT NADI_WIND NADI_PRES WELLINGTON_LAT WELLINGTON_LON WELLINGTON_WIND WELLINGTON_PRES DS824_LAT DS824_LON DS824_STAGE DS824_WIND DS824_PRES TD9636_LAT TD9636_LON TD9636_STAGE TD9636_WIND TD9636_PRES TD9635_LAT TD9635_LON TD9635_WIND TD9635_PRES TD9635_ROCI NEUMANN_LAT NEUMANN_LON NEUMANN_CLASS NEUMANN_WIND NEUMANN_PRES MLC_LAT MLC_LON MLC_CLASS MLC_WIND MLC_PRES USA_GUST BOM_GUST BOM_GUST_PER REUNION_GUST REUNION_GUST_PER USA_SEAHGT USA_SEARAD_NE USA_SEARAD_SE USA_SEARAD_SW USA_SEARAD_NW STORM_SPEED STORM_DIR
1951057S15121 1951 17 SI WA NOT_NAMED 1951-02-26 01:00:00 NR -15.0000 121.000 995 bom main 263 262 ______O_______ -1 -15.0000 121.000 995 5 245
1951057S15121 1951 17 SI WA NOT_NAMED 1951-02-26 03:00:00 NR -15.0777 120.832 main 270 270 ______P_______ -1 -15.0777 120.832 5 244
1951057S15121 1951 17 SI WA NOT_NAMED 1951-02-26 06:00:00 NR -15.1969 120.583 main 278 278 ______P_______ -1 -15.1969 120.583 5 243
1951057S15121 1951 17 SI WA NOT_NAMED 1951-02-26 09:00:00 NR -15.3231 120.340 main 293 286 ______P_______ -1 -15.3231 120.340 5 240
1951057S15121 1951 17 SI WA NOT_NAMED 1951-02-26 12:00:00 NR -15.4609 120.106 main 295 295 ______P_______ -1 -15.4609 120.106 5 236
1951057S15121 1951 17 SI WA NOT_NAMED 1951-02-26 15:00:00 NR -15.6147 119.886 main 306 306 ______P_______ -1 -15.6147 119.886 5 231
1951057S15121 1951 17 SI WA NOT_NAMED 1951-02-26 18:00:00 NR -15.7889 119.684 main 313 313 ______P_______ -1 -15.7889 119.684 5 225
1951057S15121 1951 17 SI WA NOT_NAMED 1951-02-26 21:00:00 NR -15.9880 119.502 main 322 322 ______P_______ -1 -15.9880 119.502 4 231
1951057S15121 1951 17 SI WA NOT_NAMED 1951-02-26 23:00:00 NR -16.0094 119.396 main 331 331 ______P___O___ -1 -16.1368 119.395 -15.5000 119.400 7 3 277
1951057S15121 1951 17 SI WA NOT_NAMED 1951-02-27 00:00:00 TS -15.9727 119.374 main 331 331 O_____P__OP___ jtwc_sh SH231951 -15.7000 119.400 -1 -16.2165 119.346 -16.2000 119.400 TC 45 990 -15.6442 119.389 7 2 223
1951057S15121 1951 17 SI WA NOT_NAMED 1951-02-27 01:00:00 TS -16.0505 119.362 990 bom main 327 322 P_____O__PP___ SH231951 -15.8677 119.404 -1 -16.3000 119.300 990 -16.3084 119.378 TC -15.7898 119.378 7 7 188
1951057S15121 1951 17 SI WA NOT_NAMED 1951-02-27 03:00:00 TS -16.2979 119.339 main 328 314 P_____P__PP___ SH231951 -16.2025 119.410 -1 -16.4784 119.217 -16.5254 119.333 TC -16.0898 119.357 7 8 184
1951057S15121 1951 17 SI WA NOT_NAMED 1951-02-27 06:00:00 TS -16.7211 119.299 main 314 302 O_____P__PP___ jtwc_sh SH231951 -16.7000 119.400 -1 -16.7719 119.109 -16.8519 119.258 TC -16.5818 119.329 7 9 186
1951057S15121 1951 17 SI WA NOT_NAMED 1951-02-27 09:00:00 TS -17.1675 119.239 main 307 286 P_____P__PP___ SH231951 -17.2050 119.358 -1 -17.0914 119.008 -17.1808 119.164 TC -17.1552 119.308 7 9 187
1951057S15121 1951 17 SI WA NOT_NAMED 1951-02-27 11:00:00 TS -17.4978 119.192 main 286 264 P_____P__PO___ SH231951 -17.5855 119.319 -1 -17.3161 118.937 -17.4019 119.086 TC -17.6000 119.300 7 10 187
1951057S15121 1951 17 SI WA NOT_NAMED 1951-02-27 12:00:00 TS -17.6777 119.168 main 264 201 O_____P__PP___ jtwc_sh SH231951 -17.8000 119.300 -1 -17.4313 118.900 -17.5131 119.042 TC -17.8441 119.298 7 12 187
1951057S15121 1951 17 SI WA NOT_NAMED 1951-02-27 15:00:00 TS -18.2984 119.094 main 201 134 P_____P__PP___ SH231951 -18.6150 119.265 -1 -17.7859 118.770 -17.8502 118.885 TC -18.6259 119.287 7 12 188
1951057S15121 1951 17 SI WA NOT_NAMED 1951-02-27 18:00:00 TS -18.9064 118.986 main 134 84 O_____P__PP___ jtwc_sh SH231951 -19.4000 119.200 -1 -18.1494 118.604 -18.1930 118.681 TC -19.3896 119.242 7 11 193
1951057S15121 1951 17 SI WA NOT_NAMED 1951-02-27 21:00:00 TS -19.4090 118.827 main 84 61 P_____P__PP___ SH231951 -19.9849 119.095 -1 -18.5162 118.389 -18.5426 118.423 TC -20.0166 119.130 7 10 201
1951057S15121 1951 17 SI WA NOT_NAMED 1951-02-27 23:00:00 TS -19.6603 118.677 main 61 61 P_____P__PO___ SH231951 -20.2311 118.978 -1 -18.7596 118.211 -18.7799 118.215 TC -20.3000 119.000 7 8 214
1951057S15121 1951 17 SI WA NOT_NAMED 1951-02-28 00:00:00 TS -19.7482 118.585 main 68 61 O_____P__OP___ jtwc_sh SH231951 -20.3000 118.900 -1 -18.8803 118.110 -18.9000 118.100 TC 60 980 -20.3607 118.915 7 7 229
1951057S15121 1951 17 SI WA NOT_NAMED 1951-02-28 01:00:00 TS -19.8148 118.484 980 bom main 67 55 P_____O__PP___ SH231951 -20.3321 118.814 -1 -19.0000 118.000 980 4 -19.0208 117.977 TC 60 980 -20.3889 118.817 7 7 245
1951057S15121 1951 17 SI WA NOT_NAMED 1951-02-28 03:00:00 TS -19.8913 118.250 main 55 55 P_____P__PP___ SH231951 -20.2899 118.602 -1 -19.2512 117.744 980 -19.2608 117.713 TC 60 980 -20.3645 118.589 7 7 260
1951057S15121 1951 17 SI WA NOT_NAMED 1951-02-28 06:00:00 TS -19.9177 117.843 main 64 64 O_____P__OP___ jtwc_sh SH231951 -20.1000 118.200 -1 -19.6002 117.335 980 -19.6000 117.300 TC 60 980 -20.1882 118.182 7 8 267
1951057S15121 1951 17 SI WA NOT_NAMED 1951-02-28 07:00:00 TS -19.9220 117.701 980 bom main 69 69 P_____O__PP___ SH231951 -20.0505 118.050 -1 -19.7000 117.200 980 -19.7002 117.170 TC -20.1089 118.034 7 8 271
1951057S15121 1951 17 SI WA NOT_NAMED 1951-02-28 09:00:00 TS -19.9136 117.407 main 85 84 P_____P__PP___ SH231951 -19.9425 117.722 -1 -19.8568 116.953 -19.8819 116.916 TC -19.9444 117.722 7 8 272
1951057S15121 1951 17 SI WA NOT_NAMED 1951-02-28 11:00:00 TS -19.8982 117.107 main 84 81 P_____P__PO___ SH231951 -19.8412 117.374 -1 -19.9689 116.717 -20.0398 116.668 TC -19.8000 117.400 7 8 272
1951057S15121 1951 17 SI WA NOT_NAMED 1951-02-28 12:00:00 TS -19.8981 116.957 main 81 78 O_____P__PP___ jtwc_sh SH231951 -19.8000 117.200 -1 -20.0105 116.604 -20.1103 116.547 TC -19.7698 117.236 7 8 269
1951057S15121 1951 17 SI WA NOT_NAMED 1951-02-28 15:00:00 TS -19.9063 116.514 main 81 81 P_____P__PP___ SH231951 -19.7274 116.693 -1 -20.0878 116.278 -20.2910 116.192 TC -19.6978 116.716 7 8 268
1951057S15121 1951 17 SI WA NOT_NAMED 1951-02-28 18:00:00 TS -19.9205 116.082 main 100 100 O_____P__PP___ jtwc_sh SH231951 -19.7000 116.200 -1 -20.1127 115.971 -20.4293 115.852 TC -19.6603 116.188 7 8 269
1951057S15121 1951 17 SI WA NOT_NAMED 1951-02-28 21:00:00 TS -19.9263 115.664 main 123 128 P_____P__PP___ SH231951 -19.6625 115.712 -1 -20.1088 115.678 -20.5309 115.526 TC -19.6666 115.692 7 8 268
1951057S15121 1951 17 SI WA NOT_NAMED 1951-02-28 23:00:00 TS -19.9464 115.411 main 139 130 P_____P__PO___ SH231951 -19.6746 115.424 -1 -20.1020 115.488 -20.5809 115.317 TC -19.7000 115.400 7 7 263
1951057S15121 1951 17 SI WA NOT_NAMED 1951-03-01 00:00:00 TS -19.9662 115.298 main 137 137 O_____P__PP___ jtwc_sh SH231951 -19.7000 115.300 -1 -20.0999 115.394 -20.6013 115.214 TC -19.7299 115.282 7 6 256
1951057S15121 1951 17 SI WA NOT_NAMED 1951-03-01 01:00:00 TS -19.9968 115.196 980 bom main 142 139 P_____O__PP___ SH231951 -19.7489 115.197 -1 -20.1000 115.300 980 -20.6187 115.114 TC -19.7672 115.173 7 6 246
1951057S15121 1951 17 SI WA NOT_NAMED 1951-03-01 03:00:00 TS -20.0845 115.009 main 145 144 P_____P__PP___ SH231951 -19.8848 115.028 -1 -20.1473 115.095 -20.6459 114.917 TC -19.8599 114.979 7 6 242
1951057S15121 1951 17 SI WA NOT_NAMED 1951-03-01 06:00:00 TS -20.2233 114.750 main 159 152 O_____P__PP___ jtwc_sh SH231951 -20.1000 114.800 -1 -20.2197 114.792 -20.6703 114.633 TC -20.0265 114.723 7 6 245
1951057S15121 1951 17 SI WA NOT_NAMED 1951-03-01 09:00:00 TS -20.3204 114.473 main 161 154 P_____P__PP___ SH231951 -20.2149 114.515 -1 -20.2937 114.495 -20.6800 114.363 TC -20.1982 114.477 7 6 251
1951057S15121 1951 17 SI WA NOT_NAMED 1951-03-01 11:00:00 TS -20.3737 114.282 main 158 158 P_____P__PO___ SH231951 -20.2719 114.308 -1 -20.3437 114.302 -20.6811 114.190 TC -20.3000 114.300 7 6 254
1951057S15121 1951 17 SI WA NOT_NAMED 1951-03-01 12:00:00 TS -20.3969 114.181 main 161 156 O_____P__PP___ jtwc_sh SH231951 -20.3000 114.200 -1 -20.3688 114.207 -20.6805 114.106 TC -20.3351 114.191 7 6 256
1951057S15121 1951 17 SI WA NOT_NAMED 1951-03-01 15:00:00 TS -20.4722 113.870 main 156 156 P_____P__PP___ SH231951 -20.4075 113.858 -1 -20.4448 113.930 -20.6773 113.861 TC -20.4238 113.846 7 6 256
1951057S15121 1951 17 SI WA NOT_NAMED 1951-03-01 18:00:00 TS -20.5384 113.556 main 161 154 O_____P__PP___ jtwc_sh SH231951 -20.5000 113.500 -1 -20.5213 113.664 -20.6758 113.629 TC -20.4950 113.487 7 6 259
1951057S15121 1951 17 SI WA NOT_NAMED 1951-03-01 21:00:00 TS -20.5875 113.247 main 167 167 P_____P__PP___ SH231951 -20.5500 113.142 -1 -20.5980 113.412 -20.6816 113.409 TC -20.5579 113.130 7 6 260
1951057S15121 1951 17 SI WA NOT_NAMED 1951-03-01 23:00:00 TS -20.6203 113.048 main 178 178 P_____P__PO___ SH231951 -20.5802 112.911 -1 -20.6490 113.252 -20.6921 113.268 TC -20.6000 112.900 7 6 259
1951057S15121 1951 17 SI WA NOT_NAMED 1951-03-02 00:00:00 TS -20.6394 112.955 main 178 176 O_____P__OP___ jtwc_sh SH231951 -20.6000 112.800 -1 -20.6745 113.175 -20.7000 113.200 TC 60 980 -20.6223 112.799 7 5 255
1951057S15121 1951 17 SI WA NOT_NAMED 1951-03-02 01:00:00 TS -20.6649 112.866 980 bom main 176 176 P_____O__PP___ SH231951 -20.6302 112.694 -1 -20.7000 113.100 980 -20.7199 113.138 TC -20.6444 112.701 7 5 252
1951057S15121 1951 17 SI WA NOT_NAMED 1951-03-02 03:00:00 TS -20.7173 112.698 main 190 190 P_____P__PP___ SH231951 -20.6999 112.493 -1 -20.7395 112.972 -20.7589 113.022 TC -20.6884 112.511 7 5 251
1951057S15121 1951 17 SI WA NOT_NAMED 1951-03-02 06:00:00 TS -20.7944 112.457 main 198 206 O_____P__PP___ jtwc_sh SH231951 -20.8000 112.200 -1 -20.7966 112.798 -20.8171 112.859 TC -20.7583 112.226 7 5 253
1951057S15121 1951 17 SI WA NOT_NAMED 1951-03-02 09:00:00 TS -20.8509 112.219 main 217 217 P_____P__PP___ SH231951 -20.8424 111.915 -1 -20.8543 112.639 -20.8773 112.705 TC -20.8381 111.923 7 5 255
1951057S15121 1951 17 SI WA NOT_NAMED 1951-03-02 11:00:00 TS -20.8927 112.052 main 226 235 P_____P__PO___ SH231951 -20.8745 111.711 -1 -20.8945 112.536 -20.9198 112.603 TC -20.9000 111.700 7 5 254
1951057S15121 1951 17 SI WA NOT_NAMED 1951-03-02 12:00:00 TS -20.9183 111.963 main 235 239 O_____P__PP___ jtwc_sh SH231951 -20.9000 111.600 -1 -20.9155 112.486 -20.9421 112.551 TC -20.9337 111.580 7 6 249
1951057S15121 1951 17 SI WA NOT_NAMED 1951-03-02 15:00:00 TS -21.0255 111.675 main 258 258 P_____P__PP___ SH231951 -21.0424 111.230 -1 -20.9836 112.331 -21.0142 112.391 TC -21.0451 111.194 7 6 248
1951057S15121 1951 17 SI WA NOT_NAMED 1951-03-02 18:00:00 TS -21.1456 111.352 main 281 284 O_____P__PP___ jtwc_sh SH231951 -21.2000 110.800 -1 -21.0617 112.167 -21.0962 112.218 TC -21.1700 110.773 7 7 251
1951057S15121 1951 17 SI WA NOT_NAMED 1951-03-02 21:00:00 TS -21.2467 110.994 main 310 304 P_____P__PP___ SH231951 -21.2924 110.322 -1 -21.1528 111.985 -21.1906 112.023 TC -21.3054 110.319 7 7 253
1951057S15121 1951 17 SI WA NOT_NAMED 1951-03-02 23:00:00 TS -21.3199 110.736 main 332 332 P_____P__PO___ SH231951 -21.3578 109.977 -1 -21.2224 111.849 -21.2617 111.878 TC -21.4000 110.000 7 8 253
1951057S15121 1951 17 SI WA NOT_NAMED 1951-03-03 00:00:00 TS -21.3621 110.600 main 337 337 O_____P__OP___ jtwc_sh SH231951 -21.4000 109.800 -1 -21.2601 111.777 -21.3000 111.800 TC 55 985 -21.4506 109.823 7 8 250
1951057S15121 1951 17 SI WA NOT_NAMED 1951-03-03 01:00:00 TS -21.4141 110.457 985 bom main 346 346 P_____O__PP___ SH231951 -21.4605 109.617 -1 -21.3000 111.700 985 -21.3470 111.712 TC -21.5027 109.639 7 9 248
1951057S15121 1951 17 SI WA NOT_NAMED 1951-03-03 03:00:00 TS -21.5324 110.159 main 371 377 P_____P__PP___ SH231951 -21.6000 109.243 -1 -21.4047 111.520 -21.4477 111.525 TC -21.6095 109.262 7 9 247
1951057S15121 1951 17 SI WA NOT_NAMED 1951-03-03 06:00:00 TS -21.7121 109.710 main 413 413 O_____P__PP___ jtwc_sh SH231951 -21.8000 108.700 -1 -21.5796 111.227 -21.6123 111.223 TC -21.7686 108.699 7 9 248
1951057S15121 1951 17 SI WA NOT_NAMED 1951-03-03 09:00:00 TS -21.8603 109.278 main 449 449 P_____P__PP___ SH231951 -21.9150 108.197 -1 -21.7689 110.910 -21.7874 110.898 TC -21.9152 108.187 7 8 250
1951057S15121 1951 17 SI WA NOT_NAMED 1951-03-03 11:00:00 TS -21.9500 109.018 main 479 477 P_____P__PO___ SH231951 -21.9719 107.916 -1 -21.8993 110.687 -21.9068 110.671 TC -22.0000 107.900 7 7 249
1951057S15121 1951 17 SI WA NOT_NAMED 1951-03-03 12:00:00 TS -21.9925 108.904 main 487 487 O_____P__PP___ jtwc_sh SH231951 -22.0000 107.800 -1 -21.9648 110.573 -21.9666 110.555 TC -22.0309 107.794 7 6 245
1951057S15121 1951 17 SI WA NOT_NAMED 1951-03-03 15:00:00 TS -22.1247 108.619 main 517 515 P_____P__PP___ SH231951 -22.1073 107.562 -1 -22.1594 110.221 -22.1437 110.199 TC -22.1060 107.551 7 6 243
1951057S15121 1951 17 SI WA NOT_NAMED 1951-03-03 18:00:00 TS -22.2454 108.374 main 536 535 O_____P__PP___ jtwc_sh SH231951 -22.2000 107.400 -1 -22.3451 109.858 -22.3124 109.834 TC -22.1696 107.378 7 5 245
1951057S15121 1951 17 SI WA NOT_NAMED 1951-03-03 21:00:00 TS -22.3411 108.122 main 565 565 P_____P__PP___ SH231951 -22.2424 107.215 -1 -22.5140 109.490 -22.4666 109.466 TC -22.2401 107.222 7 5 248
1951057S15121 1951 17 SI WA NOT_NAMED 1951-03-03 23:00:00 TS -22.4041 107.944 main 585 585 P_____P__PO___ SH231951 -22.2745 107.078 -1 -22.6135 109.245 -22.5582 109.222 TC -22.3000 107.100 7 5 249
1951057S15121 1951 17 SI WA NOT_NAMED 1951-03-04 00:00:00 TS -22.4388 107.850 main 585 595 O_____P__OP___ jtwc_sh SH231951 -22.3000 107.000 -1 -22.6585 109.122 -22.6000 109.100 TC 45 990 -22.3357 107.029 7 4 225
1951057S15121 1951 17 SI WA NOT_NAMED 1951-03-04 01:00:00 TS -22.4924 107.847 990 bom main 595 595 P_____O__PP___ SH231951 -22.3348 106.914 -1 -22.7000 109.000 990 -22.6383 108.993 TC -22.3751 106.950 7 3 207
1951057S15121 1951 17 SI WA NOT_NAMED 1951-03-04 03:00:00 TS -22.5921 107.763 main 595 595 P_____P__PP___ SH231951 -22.4277 106.720 -1 -22.7674 108.780 -22.7095 108.779 TC -22.4640 106.773 7 4 211
1951057S15121 1951 17 SI WA NOT_NAMED 1951-03-04 06:00:00 TS -22.7430 107.679 main 605 602 O_____P__PP___ jtwc_sh SH231951 -22.6000 106.400 -1 -22.8499 108.448 -22.8023 108.457 TC -22.6168 106.468 7 3 186
1951057S15121 1951 17 SI WA NOT_NAMED 1951-03-04 09:00:00 TS -22.8730 107.721 main 602 602 ______P__PP___ SH231951 -1 -22.9120 108.110 -22.8782 108.126 TC -22.7846 106.132 7 2 185
1951057S15121 1951 17 SI WA NOT_NAMED 1951-03-04 11:00:00 TS -22.9278 107.666 main 602 592 ______P__PO___ SH231951 -1 -22.9433 107.878 -22.9192 107.896 TC -22.9000 105.900 7 2 158
1951057S15121 1951 17 SI WA NOT_NAMED 1951-03-04 12:00:00 TS -22.9465 107.769 main 592 589 ______P__P____ -1 -22.9562 107.760 -22.9367 107.778 TC 7 4 258
1951057S15121 1951 17 SI WA NOT_NAMED 1951-03-04 15:00:00 TS -22.9812 107.398 main 629 629 ______P__P____ -1 -22.9848 107.392 -22.9775 107.405 TC 7 7 266
1951057S15121 1951 17 SI WA NOT_NAMED 1951-03-04 18:00:00 TS -23.0000 107.000 997 bom main 669 669 ______O__O____ -1 -23.0000 107.000 997 -23.0000 107.000 TC 35 997 7 8 268
1951057S15121 1951 17 SI WA NOT_NAMED 1951-03-04 21:00:00 TS -23.0047 106.573 main 709 719 ______P__P____ -1 -23.0043 106.582 998 -23.0051 106.560 TC 32 998 7 8 270
1951057S15121 1951 17 SI WA NOT_NAMED 1951-03-05 00:00:00 TS -23.0011 106.131 main 759 759 ______P__O____ -1 -23.0017 106.147 999 -23.0000 106.100 TC 30 1000 8 271
1951057S15121 1951 17 SI WA NOT_NAMED 1951-03-05 01:00:00 NR -23.0000 106.000 1000 bom main 769 ______O_______ -1 -23.0000 106.000 1000 TC 7 271

About IBTrACS Database

This database is a web-friendly format of International Best Track Archive for Climate Stewardship (IBTrACS), a global best track data archive curated by NOAA dating back to 1842.

Updated: 2021-12-03